createdAt,value
2023-02-11T00:01:33.926Z,100676.53
2023-02-11T00:04:01.095Z,100677.22
2023-02-11T00:06:29.501Z,100672.38
2023-02-11T00:08:56.160Z,100678.03
2023-02-11T00:11:25.537Z,100674.69
2023-02-11T00:13:52.095Z,100668.53
2023-02-11T00:16:20.544Z,100672.03
2023-02-11T00:18:47.652Z,100675.84
2023-02-11T00:21:20.240Z,100668.03
2023-02-11T00:23:47.541Z,100662.88
2023-02-11T00:26:19.803Z,100670.03
2023-02-11T00:28:47.156Z,100674.50
2023-02-11T00:31:15.325Z,100671.00
2023-02-11T00:33:42.540Z,100660.53
2023-02-11T00:36:13.188Z,100655.22
2023-02-11T00:38:39.788Z,100651.06
2023-02-11T00:41:06.216Z,100664.84
2023-02-11T00:43:32.709Z,100659.53
2023-02-11T00:45:59.776Z,100657.03
2023-02-11T00:48:26.276Z,100652.72
2023-02-11T00:50:52.743Z,100655.53
2023-02-11T00:53:19.162Z,100653.69
2023-02-11T00:55:45.660Z,100669.16
2023-02-11T00:58:12.193Z,100673.66
2023-02-11T01:00:38.654Z,100650.84
2023-02-11T01:03:05.148Z,100665.97
2023-02-11T01:05:31.689Z,100655.50
2023-02-11T01:07:58.677Z,100657.50
2023-02-11T01:10:25.523Z,100637.91
2023-02-11T01:12:52.092Z,100634.22
2023-02-11T01:15:19.965Z,100632.56
2023-02-11T01:17:46.439Z,100621.28
2023-02-11T01:20:20.765Z,100612.47
2023-02-11T01:22:47.292Z,100619.44
2023-02-11T01:25:14.588Z,100613.31
2023-02-11T01:27:41.203Z,100613.78
2023-02-11T01:30:09.297Z,100607.63
2023-02-11T01:32:36.134Z,100604.97
2023-02-11T01:35:03.034Z,100594.81
2023-02-11T01:37:29.555Z,100601.31
2023-02-11T01:39:55.990Z,100613.94
2023-02-11T01:42:23.606Z,100607.28
2023-02-11T01:44:51.431Z,100615.91
2023-02-11T01:47:18.920Z,100604.44
2023-02-11T01:49:56.789Z,100612.28
2023-02-11T01:52:31.969Z,100615.91
2023-02-11T01:55:27.923Z,100608.63
2023-02-11T01:57:57.754Z,100612.78
2023-02-11T02:00:40.286Z,100612.94
2023-02-11T02:03:15.366Z,100609.13
2023-02-11T02:06:10.880Z,100604.31
2023-02-11T02:08:50.368Z,100591.34
2023-02-11T02:11:16.982Z,100596.00
2023-02-11T02:13:43.651Z,100591.00
2023-02-11T02:16:16.251Z,100591.97
2023-02-11T02:19:00.865Z,100594.66
2023-02-11T02:21:39.956Z,100594.66
2023-02-11T02:24:56.556Z,100589.31
2023-02-11T02:27:37.539Z,100587.66
2023-02-11T02:30:40.662Z,100592.97
2023-02-11T02:33:38.483Z,100583.69
2023-02-11T02:36:04.917Z,100582.03
2023-02-11T02:38:42.722Z,100579.22
2023-02-11T02:41:16.061Z,100579.72
2023-02-11T02:43:45.139Z,100570.25
2023-02-11T02:46:21.858Z,100558.59
2023-02-11T02:48:49.761Z,100550.47
2023-02-11T02:51:19.138Z,100539.84
2023-02-11T02:54:19.588Z,100543.16
2023-02-11T02:56:53.804Z,100551.31
2023-02-11T02:59:49.088Z,100553.28
2023-02-11T03:02:26.736Z,100552.44
2023-02-11T03:04:59.318Z,100549.78
2023-02-11T03:07:31.376Z,100549.13
2023-02-11T03:10:07.329Z,100542.16
2023-02-11T03:12:35.866Z,100541.16
2023-02-11T03:15:05.474Z,100534.19
2023-02-11T03:17:35.139Z,100541.63
2023-02-11T03:20:06.602Z,100535.50
2023-02-11T03:22:38.692Z,100537.19
2023-02-11T03:25:05.970Z,100524.72
2023-02-11T03:27:41.245Z,100522.19
2023-02-11T03:30:20.355Z,100523.19
2023-02-11T03:33:02.695Z,100521.22
2023-02-11T03:35:36.578Z,100529.19
2023-02-11T03:38:12.596Z,100530.16
2023-02-11T03:40:41.055Z,100521.88
2023-02-11T03:43:12.940Z,100530.34
2023-02-11T03:45:40.248Z,100535.34
2023-02-11T03:48:19.195Z,100541.97
2023-02-11T03:50:48.372Z,100528.19
2023-02-11T03:53:16.089Z,100529.53
2023-02-11T03:55:43.914Z,100537.16
2023-02-11T03:58:10.873Z,100541.16
2023-02-11T04:00:39.757Z,100534.19
2023-02-11T04:03:07.599Z,100535.16
2023-02-11T04:05:34.196Z,100539.00
2023-02-11T04:08:01.035Z,100547.50
2023-02-11T04:10:27.459Z,100546.16
2023-02-11T04:12:53.989Z,100550.31
2023-02-11T04:15:20.597Z,100543.16
2023-02-11T04:17:47.017Z,100552.63
2023-02-11T04:20:13.443Z,100562.94
2023-02-11T04:22:40.206Z,100557.28
2023-02-11T04:25:07.221Z,100557.47
2023-02-11T04:27:33.653Z,100561.09
2023-02-11T04:30:00.056Z,100554.63
2023-02-11T04:32:26.431Z,100560.44
2023-02-11T04:34:54.310Z,100554.28
2023-02-11T04:37:21.207Z,100560.44
2023-02-11T04:39:47.614Z,100560.13
2023-02-11T04:42:16.782Z,100549.13
2023-02-11T04:44:43.294Z,100554.78
2023-02-11T04:47:09.724Z,100546.44
2023-02-11T04:49:36.259Z,100536.47
2023-02-11T04:52:02.667Z,100533.47
2023-02-11T04:54:29.160Z,100531.81
2023-02-11T04:56:55.613Z,100533.47
2023-02-11T04:59:22.042Z,100535.94
2023-02-11T05:01:49.686Z,100536.63
2023-02-11T05:04:16.791Z,100536.44
2023-02-11T05:06:43.472Z,100543.44
2023-02-11T05:09:11.851Z,100523.78
2023-02-11T05:11:39.394Z,100526.44
2023-02-11T05:14:07.055Z,100512.81
2023-02-11T05:16:33.769Z,100506.50
2023-02-11T05:19:00.682Z,100492.16
2023-02-11T05:21:27.175Z,100480.88
2023-02-11T05:23:53.676Z,100480.50
2023-02-11T05:26:20.159Z,100479.69
2023-02-11T05:28:46.665Z,100484.66
2023-02-11T05:31:14.590Z,100483.69
2023-02-11T05:33:41.745Z,100470.19
2023-02-11T05:36:10.862Z,100476.50
2023-02-11T05:38:38.232Z,100484.66
2023-02-11T05:41:06.429Z,100483.81
2023-02-11T05:43:34.798Z,100482.00
2023-02-11T05:46:01.520Z,100483.50
2023-02-11T05:48:28.003Z,100482.50
2023-02-11T05:50:54.589Z,100482.13
2023-02-11T05:53:21.028Z,100478.81
2023-02-11T05:55:47.546Z,100478.63
2023-02-11T05:58:14.006Z,100475.16
2023-02-11T06:00:40.530Z,100484.78
2023-02-11T06:03:07.003Z,100491.81
2023-02-11T06:05:33.444Z,100492.63
2023-02-11T06:07:59.923Z,100502.09
2023-02-11T06:10:26.705Z,100498.63
2023-02-11T06:12:53.308Z,100509.09
2023-02-11T06:15:19.927Z,100515.25
2023-02-11T06:17:46.427Z,100515.91
2023-02-11T06:20:12.922Z,100505.91
2023-02-11T06:22:39.330Z,100506.38
2023-02-11T06:25:06.250Z,100506.06
2023-02-11T06:27:32.725Z,100504.03
2023-02-11T06:29:59.120Z,100503.03
2023-02-11T06:32:45.536Z,100502.03
2023-02-11T06:35:13.524Z,100504.53
2023-02-11T06:37:40.980Z,100500.03
2023-02-11T06:40:07.941Z,100491.88
2023-02-11T06:42:36.124Z,100499.69
2023-02-11T06:45:02.821Z,100499.34
2023-02-11T06:47:29.271Z,100510.47
2023-02-11T06:49:55.668Z,100507.63
2023-02-11T06:52:22.208Z,100507.31
2023-02-11T06:54:48.626Z,100517.59
2023-02-11T06:57:15.008Z,100517.28
2023-02-11T06:59:41.649Z,100514.59
2023-02-11T07:02:10.457Z,100514.88
2023-02-11T07:04:36.966Z,100514.56
2023-02-11T07:07:03.507Z,100514.19
2023-02-11T07:09:30.488Z,100507.69
2023-02-11T07:11:57.111Z,100512.22
2023-02-11T07:14:23.732Z,100515.69
2023-02-11T07:16:50.153Z,100520.03
2023-02-11T07:19:17.136Z,100515.16
2023-02-11T07:21:43.713Z,100514.81
2023-02-11T07:24:11.226Z,100510.97
2023-02-11T07:26:37.802Z,100506.47
2023-02-11T07:29:04.308Z,100495.59
2023-02-11T07:31:31.220Z,100514.75
2023-02-11T07:34:00.003Z,100515.41
2023-02-11T07:36:27.855Z,100519.59
2023-02-11T07:38:58.484Z,100515.53
2023-02-11T07:41:27.613Z,100523.03
2023-02-11T07:44:00.940Z,100523.31
2023-02-11T07:46:29.713Z,100510.13
2023-02-11T07:49:01.074Z,100507.56
2023-02-11T07:51:37.129Z,100508.50
2023-02-11T07:54:04.742Z,100506.59
2023-02-11T07:56:32.532Z,100504.69
2023-02-11T07:59:03.681Z,100493.94
2023-02-11T08:01:30.679Z,100486.84
2023-02-11T08:03:59.325Z,100495.63
2023-02-11T08:06:28.288Z,100485.22
2023-02-11T08:08:55.128Z,100488.66
2023-02-11T08:11:24.413Z,100485.41
2023-02-11T08:13:51.515Z,100487.19
2023-02-11T08:16:24.849Z,100500.63
2023-02-11T08:18:53.027Z,100496.41
2023-02-11T08:21:24.771Z,100507.56
2023-02-11T08:23:51.892Z,100506.34
2023-02-11T08:26:21.886Z,100514.84
2023-02-11T08:28:50.014Z,100520.63
2023-02-11T08:31:33.957Z,100521.25
2023-02-11T08:34:05.006Z,100521.25
2023-02-11T08:36:45.035Z,100520.63
2023-02-11T08:39:20.360Z,100511.59
2023-02-11T08:41:50.317Z,100511.50
2023-02-11T08:44:18.481Z,100505.25
2023-02-11T08:46:45.023Z,100503.28
2023-02-11T08:49:11.843Z,100494.34
2023-02-11T08:51:38.265Z,100493.59
2023-02-11T08:54:06.156Z,100489.34
2023-02-11T08:56:33.579Z,100485.72
2023-02-11T08:59:00.057Z,100487.47
2023-02-11T09:01:29.646Z,100496.38
2023-02-11T09:03:57.340Z,100497.91
2023-02-11T09:06:25.057Z,100517.19
2023-02-11T09:08:54.244Z,100517.06
2023-02-11T09:11:24.921Z,100512.59
2023-02-11T09:13:53.988Z,100509.50
2023-02-11T09:16:24.856Z,100496.78
2023-02-11T09:18:51.553Z,100498.03
2023-02-11T09:21:19.916Z,100489.66
2023-02-11T09:23:47.806Z,100487.78
2023-02-11T09:26:14.319Z,100483.91
2023-02-11T09:28:40.973Z,100477.78
2023-02-11T09:31:10.016Z,100477.63
2023-02-11T09:33:37.714Z,100474.19
2023-02-11T09:36:05.931Z,100473.44
2023-02-11T09:38:33.084Z,100474.78
2023-02-11T09:40:59.753Z,100473.59
2023-02-11T09:43:46.841Z,100475.28
2023-02-11T09:46:16.180Z,100483.81
2023-02-11T09:48:45.567Z,100489.44
2023-02-11T09:51:47.246Z,100488.25
2023-02-11T09:54:23.311Z,100500.25
2023-02-11T09:56:49.766Z,100503.22
2023-02-11T09:59:17.589Z,100501.78
2023-02-11T10:01:50.369Z,100501.19
2023-02-11T10:04:44.858Z,100506.00
2023-02-11T10:07:17.391Z,100499.84
2023-02-11T10:09:55.191Z,100508.78
2023-02-11T10:12:44.011Z,100502.56
2023-02-11T10:15:35.112Z,100504.66
2023-02-11T10:18:38.474Z,100505.28
2023-02-11T10:21:36.934Z,100498.72
2023-02-11T10:24:10.079Z,100505.72
2023-02-11T10:26:39.584Z,100512.97
2023-02-11T10:29:21.767Z,100506.94
2023-02-11T10:31:49.277Z,100503.03
2023-02-11T10:34:15.872Z,100495.13
2023-02-11T10:36:44.635Z,100498.41
2023-02-11T10:39:23.267Z,100506.44
2023-02-11T10:42:10.022Z,100507.88
2023-02-11T10:44:40.199Z,100501.22
2023-02-11T10:47:25.490Z,100486.47
2023-02-11T10:49:51.935Z,100479.41
2023-02-11T10:52:24.797Z,100466.38
2023-02-11T10:55:22.825Z,100474.97
2023-02-11T10:58:01.811Z,100463.72
2023-02-11T11:00:38.925Z,100463.63
2023-02-11T11:03:27.801Z,100445.78
2023-02-11T11:05:58.745Z,100444.41
2023-02-11T11:08:41.810Z,100452.56
2023-02-11T11:11:11.356Z,100443.13
2023-02-11T11:13:40.189Z,100441.19
2023-02-11T11:16:22.284Z,100440.94
2023-02-11T11:18:51.661Z,100442.34
2023-02-11T11:21:28.703Z,100448.91
2023-02-11T11:23:58.484Z,100442.44
2023-02-11T11:26:29.126Z,100453.09
2023-02-11T11:29:00.848Z,100441.25
2023-02-11T11:31:32.205Z,100448.00
2023-02-11T11:34:01.276Z,100441.72
2023-02-11T11:36:40.201Z,100442.56
2023-02-11T11:39:34.119Z,100437.94
2023-02-11T11:42:03.274Z,100443.03
2023-02-11T11:44:35.654Z,100447.06
2023-02-11T11:47:11.480Z,100431.31
2023-02-11T11:49:42.846Z,100422.22
2023-02-11T11:52:12.191Z,100428.25
2023-02-11T11:54:40.162Z,100427.03
2023-02-11T11:57:22.014Z,100426.94
2023-02-11T11:59:48.609Z,100432.22
2023-02-11T12:02:36.549Z,100436.69
2023-02-11T12:05:25.372Z,100436.56
2023-02-11T12:08:08.467Z,100436.69
2023-02-11T12:10:55.080Z,100421.50
2023-02-11T12:13:29.798Z,100425.75
2023-02-11T12:16:10.086Z,100418.94
2023-02-11T12:19:13.552Z,100430.34
2023-02-11T12:22:00.938Z,100427.75
2023-02-11T12:24:55.914Z,100430.44
2023-02-11T12:27:28.620Z,100431.81
2023-02-11T12:30:22.816Z,100429.88
2023-02-11T12:32:57.774Z,100433.94
2023-02-11T12:35:42.351Z,100430.19
2023-02-11T12:38:41.001Z,100430.19
2023-02-11T12:41:52.941Z,100432.66
2023-02-11T12:45:01.258Z,100433.22
2023-02-11T12:47:38.984Z,100428.59
2023-02-11T12:50:35.961Z,100442.41
2023-02-11T12:53:35.012Z,100428.41
2023-02-11T12:56:08.309Z,100420.97
2023-02-11T12:58:44.996Z,100422.50
2023-02-11T13:01:43.618Z,100415.31
2023-02-11T13:04:24.523Z,100406.00
2023-02-11T13:07:05.424Z,100390.84
2023-02-11T13:09:52.243Z,100390.56
2023-02-11T13:12:37.757Z,100391.81
2023-02-11T13:15:07.693Z,100397.50
2023-02-11T13:17:48.159Z,100390.66
2023-02-11T13:20:28.470Z,100383.19
2023-02-11T13:23:30.556Z,100382.91
2023-02-11T13:26:10.494Z,100375.47
2023-02-11T13:29:01.646Z,100383.66
2023-02-11T13:31:30.136Z,100387.88
2023-02-11T13:33:56.712Z,100392.94
2023-02-11T13:36:26.609Z,100393.31
2023-02-11T13:38:59.953Z,100393.06
2023-02-11T13:41:33.042Z,100384.72
2023-02-11T13:44:08.303Z,100382.59
2023-02-11T13:46:59.869Z,100394.59
2023-02-11T13:49:37.486Z,100388.72
2023-02-11T13:52:16.273Z,100386.25
2023-02-11T13:54:49.482Z,100388.22
2023-02-11T13:57:21.929Z,100384.59
2023-02-11T13:59:51.870Z,100375.41
2023-02-11T14:02:53.545Z,100378.03
2023-02-11T14:05:46.544Z,100369.31
2023-02-11T14:08:37.659Z,100377.28
2023-02-11T14:11:23.627Z,100370.94
2023-02-11T14:13:53.087Z,100374.50
2023-02-11T14:16:36.988Z,100375.19
2023-02-11T14:19:06.771Z,100369.78
2023-02-11T14:21:37.107Z,100370.16
2023-02-11T14:24:04.907Z,100368.38
2023-02-11T14:29:34.813Z,100372.72
2023-02-11T14:32:38.092Z,100371.06
2023-02-11T14:35:39.479Z,100379.78
2023-02-11T14:38:35.091Z,100375.09
2023-02-11T14:41:16.747Z,100375.78
2023-02-11T14:43:47.893Z,100378.25
2023-02-11T14:46:19.702Z,100378.38
2023-02-11T14:48:50.395Z,100390.59
2023-02-11T14:51:23.285Z,100386.31
2023-02-11T14:53:52.096Z,100381.81
2023-02-11T14:56:20.315Z,100383.69
2023-02-11T14:58:51.860Z,100386.84
2023-02-11T15:01:32.396Z,100395.19
2023-02-11T15:04:00.524Z,100398.97
2023-02-11T15:06:32.768Z,100399.06
2023-02-11T15:09:13.143Z,100396.31
2023-02-11T15:11:42.577Z,100396.50
2023-02-11T15:14:15.158Z,100393.53
2023-02-11T15:16:44.638Z,100397.72
2023-02-11T15:19:21.677Z,100400.81
2023-02-11T15:21:50.671Z,100394.91
2023-02-11T15:24:32.100Z,100412.59
2023-02-11T15:27:12.673Z,100411.78
2023-02-11T15:29:47.088Z,100396.03
2023-02-11T15:32:18.213Z,100407.78
2023-02-11T15:34:46.103Z,100397.63
2023-02-11T15:37:32.866Z,100399.63
2023-02-11T15:40:15.972Z,100415.00
2023-02-11T15:42:56.207Z,100412.53
2023-02-11T15:45:30.952Z,100430.00
2023-02-11T15:48:14.465Z,100418.69
2023-02-11T15:50:43.053Z,100415.47
2023-02-11T15:53:25.481Z,100424.94
2023-02-11T15:56:08.663Z,100418.78
2023-02-11T15:58:40.111Z,100425.09
2023-02-11T16:01:08.879Z,100430.53
2023-02-11T16:03:35.806Z,100424.63
2023-02-11T16:06:26.599Z,100431.34
2023-02-11T16:09:08.320Z,100434.34
2023-02-11T16:11:54.884Z,100437.91
2023-02-11T16:14:24.002Z,100432.34
2023-02-11T16:16:53.044Z,100436.56
2023-02-11T16:19:24.211Z,100439.09
2023-02-11T16:21:53.500Z,100440.34
2023-02-11T16:24:32.764Z,100442.66
2023-02-11T16:27:02.083Z,100445.59
2023-02-11T16:29:32.003Z,100440.41
2023-02-11T16:32:14.984Z,100440.25
2023-02-11T16:34:41.665Z,100449.38
2023-02-11T16:37:08.231Z,100451.91
2023-02-11T16:39:34.945Z,100466.00
2023-02-11T16:42:02.464Z,100467.28
2023-02-11T16:44:29.101Z,100466.06
2023-02-11T16:46:59.594Z,100475.19
2023-02-11T16:49:27.802Z,100467.56
2023-02-11T16:51:56.924Z,100473.38
2023-02-11T16:54:23.766Z,100466.56
2023-02-11T16:56:50.451Z,100474.84
2023-02-11T16:59:16.869Z,100478.19
2023-02-11T17:01:44.887Z,100479.47
2023-02-11T17:04:33.450Z,100479.25
2023-02-11T17:07:00.132Z,100483.34
2023-02-11T17:09:30.470Z,100481.13
2023-02-11T17:11:57.623Z,100485.25
2023-02-11T17:14:24.342Z,100486.09
2023-02-11T17:16:50.955Z,100480.69
2023-02-11T17:19:22.297Z,100482.38
2023-02-11T17:21:51.922Z,100482.38
2023-02-11T17:24:20.222Z,100476.13
2023-02-11T17:26:47.500Z,100471.19
2023-02-11T17:29:17.326Z,100474.75
2023-02-11T17:31:44.321Z,100479.94
2023-02-11T17:34:10.985Z,100483.09
2023-02-11T17:36:37.469Z,100485.38
2023-02-11T17:39:07.722Z,100479.59
2023-02-11T17:41:36.106Z,100487.09
2023-02-11T17:44:02.565Z,100489.13
2023-02-11T17:46:29.187Z,100494.97
2023-02-11T17:48:58.610Z,100494.97
2023-02-11T17:51:25.063Z,100497.66
2023-02-11T17:53:52.328Z,100500.34
2023-02-11T17:56:19.040Z,100507.81
2023-02-11T17:58:46.031Z,100511.94
2023-02-11T18:01:12.613Z,100507.81
2023-02-11T18:03:39.133Z,100513.38
2023-02-11T18:06:06.932Z,100514.22
2023-02-11T18:08:34.837Z,100516.91
2023-02-11T18:11:01.532Z,100515.25
2023-02-11T18:13:28.853Z,100517.75
2023-02-11T18:15:55.809Z,100517.75
2023-02-11T18:18:22.300Z,100521.28
2023-02-11T18:20:59.601Z,100522.50
2023-02-11T18:23:27.335Z,100531.03
2023-02-11T18:25:54.144Z,100526.03
2023-02-11T18:28:20.892Z,100523.56
2023-02-11T18:30:47.503Z,100517.38
2023-02-11T18:33:14.462Z,100523.78
2023-02-11T18:35:43.402Z,100524.84
2023-02-11T18:38:09.868Z,100531.84
2023-02-11T18:40:39.814Z,100537.25
2023-02-11T18:43:07.156Z,100535.59
2023-02-11T18:45:34.020Z,100530.22
2023-02-11T18:48:05.178Z,100529.38
2023-02-11T18:50:31.779Z,100525.25
2023-02-11T18:52:58.186Z,100516.56
2023-02-11T18:55:25.913Z,100535.63
2023-02-11T18:57:52.946Z,100543.69
2023-02-11T19:00:21.057Z,100536.84
2023-02-11T19:02:47.448Z,100525.25
2023-02-11T19:05:14.144Z,100530.44
2023-02-11T19:07:40.616Z,100539.94
2023-02-11T19:10:08.004Z,100536.00
2023-02-11T19:12:34.873Z,100530.63
2023-02-11T19:15:02.467Z,100539.72
2023-02-11T19:17:28.899Z,100530.00
2023-02-11T19:19:55.343Z,100536.22
2023-02-11T19:22:21.754Z,100531.66
2023-02-11T19:24:48.363Z,100529.78
2023-02-11T19:27:14.764Z,100532.69
2023-02-11T19:29:41.349Z,100531.06
2023-02-11T19:32:08.038Z,100532.69
2023-02-11T19:34:41.035Z,100536.44
2023-02-11T19:37:12.934Z,100538.53
2023-02-11T19:39:40.525Z,100541.81
2023-02-11T19:49:37.138Z,100529.81
2023-02-11T20:40:32.249Z,100526.53
2023-02-11T20:42:58.659Z,100531.09
2023-02-11T20:45:25.033Z,100526.75
2023-02-11T20:47:51.455Z,100528.19
2023-02-11T20:50:17.878Z,100534.38
2023-02-11T20:52:44.579Z,100539.16
2023-02-11T20:55:11.086Z,100534.81
2023-02-11T20:57:37.517Z,100541.44
2023-02-11T21:00:04.191Z,100536.91
2023-02-11T21:02:30.603Z,100550.53
2023-02-11T21:04:56.970Z,100545.16
2023-02-11T21:07:23.385Z,100543.50
2023-02-11T21:09:49.792Z,100544.09
2023-02-11T21:12:16.264Z,100545.56
2023-02-11T21:14:42.725Z,100548.47
2023-02-11T21:17:09.176Z,100553.22
2023-02-11T21:19:35.568Z,100556.13
2023-02-11T21:22:01.932Z,100550.97
2023-02-11T21:24:28.420Z,100550.34
2023-02-11T21:26:54.897Z,100549.94
2023-02-11T21:29:21.285Z,100559.25
2023-02-11T21:31:47.871Z,100553.88
2023-02-11T21:34:16.049Z,100555.09
2023-02-11T21:36:42.989Z,100564.00
2023-02-11T21:39:09.697Z,100562.34
2023-02-11T21:41:37.305Z,100565.03
2023-02-11T21:44:03.735Z,100565.03
2023-02-11T21:46:30.894Z,100578.69
2023-02-11T21:48:57.692Z,100564.63
2023-02-11T21:51:25.902Z,100563.81
2023-02-11T21:53:53.950Z,100565.88
2023-02-11T21:56:20.410Z,100566.91
2023-02-11T21:58:47.329Z,100574.97
2023-02-11T22:01:19.470Z,100581.38
2023-02-11T22:03:46.345Z,100577.06
2023-02-11T22:06:16.013Z,100565.69
2023-02-11T22:08:42.833Z,100568.78
2023-02-11T22:11:12.187Z,100570.84
2023-02-11T22:13:39.440Z,100572.50
2023-02-11T22:16:09.684Z,100578.91
2023-02-11T22:18:36.886Z,100574.97
2023-02-11T22:21:11.756Z,100584.09
2023-02-11T22:23:39.207Z,100587.59
2023-02-11T22:26:13.382Z,100582.00
2023-02-11T22:28:40.822Z,100581.00
2023-02-11T22:31:16.381Z,100585.34
2023-02-11T22:33:43.418Z,100591.53
2023-02-11T22:36:18.886Z,100596.09
2023-02-11T22:38:45.779Z,100596.09
2023-02-11T22:41:12.844Z,100597.13
2023-02-11T22:43:39.452Z,100598.78
2023-02-11T22:46:07.873Z,100585.34
2023-02-11T22:48:35.637Z,100578.31
2023-02-11T22:51:12.679Z,100570.41
2023-02-11T22:53:39.171Z,100572.28
2023-02-11T22:56:08.578Z,100578.69
2023-02-11T22:58:36.280Z,100579.53
2023-02-11T23:01:03.755Z,100577.06
2023-02-11T23:03:31.260Z,100587.19
2023-02-11T23:05:59.494Z,100585.50
2023-02-11T23:08:27.691Z,100583.88
2023-02-11T23:10:54.505Z,100575.19
2023-02-11T23:13:21.373Z,100579.31
2023-02-11T23:15:48.142Z,100576.84
2023-02-11T23:18:14.870Z,100575.81
2023-02-11T23:20:43.209Z,100571.69
2023-02-11T23:23:09.832Z,100567.13
2023-02-11T23:25:42.834Z,100572.06
2023-02-11T23:28:10.011Z,100567.94
2023-02-11T23:30:39.600Z,100563.19
2023-02-11T23:33:06.062Z,100575.81
2023-02-11T23:35:33.230Z,100584.09
2023-02-11T23:37:59.708Z,100579.97
2023-02-11T23:40:26.176Z,100586.16
2023-02-11T23:42:52.698Z,100582.81
2023-02-11T23:45:19.166Z,100583.69
2023-02-11T23:47:45.805Z,100597.72
2023-02-11T23:50:12.474Z,100585.72
2023-02-11T23:52:38.996Z,100579.53
2023-02-11T23:55:06.283Z,100580.13
2023-02-11T23:57:33.373Z,100585.34
2023-02-11T23:59:59.882Z,100596.47
